Time;durP1;ratioP1;P1;durP2;ratioP2;P2;SDS_P1;SDS_P2;PMS_P1;PMS_P2;Temp;Humidity;BMP_temperature;BMP_pressure;BME280_temperature;BME280_humidity;BME280_pressure;Samples;Min_cycle;Max_cycle;Signal;HPM_P1;HPM_P2
2023/12/18 00:00:33;;;;;;;1.17;1.10;;;;;;;0.65;nan;-20381.16;5031543;28;20619;-67
2023/12/18 00:02:59;;;;;;;1.83;1.73;;;;;;;0.54;nan;-20064.94;5031320;28;20572;-64
2023/12/18 00:05:24;;;;;;;1.60;1.50;;;;;;;0.67;nan;-19753.97;5031392;28;20576;-67
2023/12/18 00:07:49;;;;;;;2.90;1.90;;;;;;;0.68;nan;-19440.25;4432780;28;20937;-66
2023/12/18 00:10:15;;;;;;;1.70;1.60;;;;;;;0.90;nan;-18816.63;4400738;28;21362;-66
2023/12/18 00:12:41;;;;;;;1.27;1.27;;;;;;;0.95;nan;-18817.66;4566937;28;20276;-67
2023/12/18 00:15:07;;;;;;;1.23;1.23;;;;;;;1.01;nan;-19133.03;5031247;28;20529;-64
2023/12/18 00:17:32;;;;;;;1.50;1.40;;;;;;;1.00;nan;-19446.84;5031194;28;20237;-66
2023/12/18 00:19:59;;;;;;;1.77;1.57;;;;;;;0.79;nan;-19442.47;5031314;28;20183;-66
2023/12/18 00:22:24;;;;;;;1.23;1.23;;;;;;;1.08;nan;-18505.97;5031078;28;20634;-64
2023/12/18 00:24:50;;;;;;;1.63;1.53;;;;;;;0.92;nan;-19131.06;5031233;28;20187;-67
2023/12/18 00:27:15;;;;;;;2.13;1.90;;;;;;;0.81;nan;-19443.00;5031331;28;20182;-64
2023/12/18 00:29:40;;;;;;;1.60;1.50;;;;;;;1.01;nan;-19447.06;5034809;28;20225;-63
2023/12/18 00:32:06;;;;;;;1.80;1.70;;;;;;;0.94;nan;-19759.75;5031023;28;20219;-65
2023/12/18 00:34:32;;;;;;;1.10;1.10;;;;;;;0.62;nan;-20066.75;5031601;28;20210;-65
2023/12/18 00:36:57;;;;;;;1.87;1.73;;;;;;;0.92;nan;-20387.22;5031612;28;20189;-68
2023/12/18 00:39:22;;;;;;;1.73;1.63;;;;;;;0.80;nan;-20384.59;5031136;28;20215;-66
2023/12/18 00:41:48;;;;;;;1.63;1.53;;;;;;;0.81;nan;-20384.94;5031131;28;20604;-67
2023/12/18 00:44:13;;;;;;;1.37;1.37;;;;;;;0.73;nan;-20383.09;5030901;28;20241;-66
2023/12/18 00:46:39;;;;;;;2.23;2.03;;;;;;;0.72;nan;-20382.88;5030903;28;20183;-67
2023/12/18 00:49:04;;;;;;;1.53;1.43;;;;;;;0.81;nan;-19443.00;5031120;28;20563;-66
2023/12/18 00:51:29;;;;;;;1.70;1.60;;;;;;;0.71;nan;-19440.88;5031322;28;20193;-68
2023/12/18 00:53:55;;;;;;;1.10;1.10;;;;;;;0.41;nan;-19434.47;5030907;28;20203;-67
2023/12/18 00:56:20;;;;;;;2.50;2.30;;;;;;;0.44;nan;-20062.72;5030877;28;20179;-65
2023/12/18 00:58:46;;;;;;;4.70;1.97;;;;;;;0.79;nan;-20070.53;5030859;28;20175;-67
2023/12/18 01:01:11;;;;;;;2.07;1.90;;;;;;;0.58;nan;-19752.00;5030658;28;20201;-66
2023/12/18 01:03:38;;;;;;;1.43;1.33;;;;;;;0.76;nan;-19755.81;5030464;28;20609;-67
2023/12/18 01:06:05;;;;;;;1.40;1.33;;;;;;;0.67;nan;-20067.75;5030676;28;20175;-65
2023/12/18 01:08:30;;;;;;;1.20;1.20;;;;;;;0.63;nan;-20066.97;5030977;28;20214;-64
2023/12/18 01:10:56;;;;;;;1.30;1.20;;;;;;;0.65;nan;-20067.31;5030967;28;20711;-62
2023/12/18 01:13:21;;;;;;;1.63;1.40;;;;;;;0.73;nan;-20069.19;5030915;28;20175;-66
2023/12/18 01:15:47;;;;;;;3.87;2.80;;;;;;;0.60;nan;-20066.28;5030578;28;20176;-64
2023/12/18 01:18:12;;;;;;;1.27;1.23;;;;;;;0.43;nan;-20062.47;5030751;28;20186;-67
2023/12/18 01:20:37;;;;;;;1.27;1.23;;;;;;;0.38;nan;-20061.34;5030698;28;20646;-63
2023/12/18 01:23:03;;;;;;;11.00;2.40;;;;;;;0.39;nan;-20375.31;5030390;28;20306;-72
2023/12/18 01:25:28;;;;;;;1.63;1.53;;;;;;;0.70;nan;-20068.41;5030628;28;20179;-68
2023/12/18 01:27:54;;;;;;;1.67;1.57;;;;;;;0.69;nan;-19440.34;5030627;28;20171;-65
2023/12/18 01:30:19;;;;;;;1.50;1.40;;;;;;;0.59;nan;-19752.22;5030131;28;20362;-64
2023/12/18 01:32:46;;;;;;;1.10;1.10;;;;;;;0.46;nan;-20063.16;5035282;28;20281;-62
2023/12/18 01:35:11;;;;;;;1.03;1.03;;;;;;;0.43;nan;-20062.59;5034595;28;20684;-66
2023/12/18 01:37:36;;;;;;;1.87;1.77;;;;;;;0.34;nan;-20060.56;5034392;28;20643;-63
2023/12/18 01:40:03;;;;;;;3.10;1.70;;;;;;;0.40;nan;-20061.81;5034666;28;20188;-66
2023/12/18 01:42:28;;;;;;;2.30;2.00;;;;;;;0.34;nan;-20374.28;5034103;28;20598;-66
2023/12/18 01:44:54;;;;;;;1.50;1.40;;;;;;;0.44;nan;-20376.56;5033970;28;20638;-65
2023/12/18 01:47:19;;;;;;;2.20;1.43;;;;;;;0.22;nan;-20685.03;5034325;28;20634;-65
2023/12/18 01:49:45;;;;;;;1.50;1.40;;;;;;;0.19;nan;-20997.88;5033833;28;20369;-65
2023/12/18 01:52:11;;;;;;;1.60;1.50;;;;;;;0.21;nan;-20684.78;5034186;28;20237;-64
2023/12/18 01:54:36;;;;;;;1.67;1.57;;;;;;;0.27;nan;-20372.56;5034174;28;20274;-63
2023/12/18 01:57:04;;;;;;;1.47;1.40;;;;;;;0.58;nan;-19752.00;5033820;28;20546;-66
2023/12/18 01:59:31;;;;;;;1.50;1.40;;;;;;;0.60;nan;-19752.31;5033685;28;20174;-66
2023/12/18 02:01:56;;;;;;;2.00;1.60;;;;;;;0.33;nan;-19432.88;5033950;28;20234;-68
2023/12/18 02:04:22;;;;;;;2.47;1.33;;;;;;;0.56;nan;-18809.84;5033768;28;20537;-67
2023/12/18 02:06:49;;;;;;;1.50;1.40;;;;;;;0.84;nan;-18187.16;5034003;28;20174;-65
2023/12/18 02:09:15;;;;;;;1.40;1.30;;;;;;;1.03;nan;-17876.47;5033540;28;20186;-64
2023/12/18 02:11:47;;;;;;;1.43;1.30;;;;;;;0.88;nan;-17559.53;5032765;28;20632;-65
2023/12/18 02:14:13;;;;;;;1.17;1.17;;;;;;;1.01;nan;-17876.19;5033445;28;20211;-67
2023/12/18 02:16:38;;;;;;;1.23;1.20;;;;;;;0.98;nan;-17561.25;5033368;28;20270;-67
2023/12/18 02:19:04;;;;;;;1.37;1.27;;;;;;;1.04;nan;-17562.34;5033720;28;20266;-66
2023/12/18 02:21:29;;;;;;;3.17;2.17;;;;;;;0.99;nan;-17561.53;5033798;28;20254;-62
2023/12/18 02:23:55;;;;;;;1.57;1.47;;;;;;;1.15;nan;-18193.03;5033478;28;20661;-64
2023/12/18 02:26:21;;;;;;;1.13;1.13;;;;;;;0.83;nan;-18815.22;5032037;28;20191;-65
2023/12/18 02:28:46;;;;;;;1.67;1.33;;;;;;;1.05;nan;-19447.91;5032226;28;20655;-65
2023/12/18 02:31:15;;;;;;;1.73;1.63;;;;;;;0.93;nan;-19131.25;5033144;28;20234;-65
2023/12/18 02:33:42;;;;;;;1.20;1.20;;;;;;;1.07;nan;-18819.97;5032934;28;20661;-66
2023/12/18 02:36:07;;;;;;;1.20;1.20;;;;;;;0.92;nan;-19131.16;5036606;28;20175;-64
2023/12/18 02:38:33;;;;;;;1.67;1.57;;;;;;;0.78;nan;-19442.38;5032792;28;20709;-63
2023/12/18 02:40:59;;;;;;;2.43;1.90;;;;;;;0.85;nan;-19757.91;5032956;28;20174;-66
2023/12/18 02:43:24;;;;;;;1.63;1.53;;;;;;;0.75;nan;-20069.66;5032056;28;20211;-65
2023/12/18 02:45:50;;;;;;;1.30;1.20;;;;;;;0.65;nan;-20381.16;5032482;28;20690;-66
2023/12/18 02:48:15;;;;;;;1.87;1.63;;;;;;;0.68;nan;-20381.84;5032658;28;20178;-66
2023/12/18 02:50:40;;;;;;;1.40;1.30;;;;;;;0.31;nan;-20687.25;5032402;28;20178;-66
2023/12/18 02:53:06;;;;;;;1.03;1.03;;;;;;;0.21;nan;-20684.91;5032886;28;20194;-67
2023/12/18 02:55:31;;;;;;;1.00;1.00;;;;;;;0.45;nan;-21004.13;5032189;28;20213;-64
2023/12/18 02:57:57;;;;;;;1.10;1.10;;;;;;;0.37;nan;-21002.19;5032153;28;20660;-67
2023/12/18 03:00:22;;;;;;;1.57;1.47;;;;;;;0.13;nan;-21309.94;5032953;28;20309;-66
2023/12/18 03:02:47;;;;;;;1.20;1.20;;;;;;;0.10;nan;-21309.31;5032965;28;20257;-65
2023/12/18 03:05:14;;;;;;;1.90;1.80;;;;;;;0.44;nan;-21317.53;5031714;28;20182;-67
2023/12/18 03:07:39;;;;;;;1.33;1.30;;;;;;;0.30;nan;-21000.63;5033124;28;20184;-62
2023/12/18 03:10:05;;;;;;;2.50;1.87;;;;;;;0.10;nan;-20995.84;5032707;28;20178;-65
2023/12/18 03:12:31;;;;;;;2.50;1.47;;;;;;;0.13;nan;-21310.06;5032123;28;20196;-66
2023/12/18 03:14:56;;;;;;;1.87;1.47;;;;;;;0.20;nan;-21311.66;5032378;28;20277;-66
2023/12/18 03:17:21;;;;;;;3.70;1.77;;;;;;;0.09;nan;-20995.47;5032581;28;20275;-65
2023/12/18 03:19:47;;;;;;;1.10;1.10;;;;;;;0.14;nan;-21310.19;5032962;28;20184;-63
2023/12/18 03:22:13;;;;;;;1.10;1.10;;;;;;;0.32;nan;-21314.59;5032282;28;20205;-63
2023/12/18 03:24:42;;;;;;;1.67;1.27;;;;;;;0.03;nan;-21307.63;5032426;28;20714;-67
2023/12/18 03:27:08;;;;;;;1.73;1.63;;;;;;;0.33;nan;-21001.22;5032067;28;20188;-66
2023/12/18 03:29:34;;;;;;;1.20;1.20;;;;;;;0.37;nan;-20688.66;5032067;28;20602;-66
2023/12/18 03:32:00;;;;;;;1.50;1.40;;;;;;;0.47;nan;-20377.03;5032374;28;20280;-66
2023/12/18 03:34:26;;;;;;;1.30;1.20;;;;;;;0.38;nan;-20061.34;5032069;28;20285;-65
2023/12/18 03:36:51;;;;;;;1.23;1.23;;;;;;;0.54;nan;-19751.00;5032034;28;20678;-65
2023/12/18 03:39:16;;;;;;;1.20;1.17;;;;;;;0.47;nan;-19435.75;5034251;28;20178;-62
2023/12/18 03:41:42;;;;;;;1.70;1.33;;;;;;;0.73;nan;-19441.19;5032441;28;20685;-64
2023/12/18 03:44:07;;;;;;;1.10;1.10;;;;;;;0.72;nan;-19440.97;5032077;28;20202;-64
2023/12/18 03:46:33;;;;;;;1.30;1.20;;;;;;;0.77;nan;-19442.06;5031922;28;20215;-66
2023/12/18 03:48:58;;;;;;;2.97;2.30;;;;;;;0.74;nan;-19441.41;5031972;28;20174;-70
2023/12/18 03:51:24;;;;;;;4.20;1.63;;;;;;;0.44;nan;-19435.22;5032138;28;20186;-64
2023/12/18 03:53:49;;;;;;;1.40;1.30;;;;;;;0.52;nan;-20064.50;5031809;28;20175;-67
2023/12/18 03:56:15;;;;;;;1.20;1.20;;;;;;;0.33;nan;-20374.06;5031208;28;20175;-67
2023/12/18 03:58:40;;;;;;;1.00;1.00;;;;;;;0.67;nan;-20067.75;5031742;28;20565;-66
2023/12/18 04:01:06;;;;;;;1.53;1.43;;;;;;;0.79;nan;-19756.47;5030325;28;20237;-65
2023/12/18 04:03:32;;;;;;;1.57;1.47;;;;;;;0.48;nan;-19435.97;5031606;28;20268;-64
2023/12/18 04:05:57;;;;;;;1.70;1.60;;;;;;;0.77;nan;-19442.16;5031822;28;20187;-67
2023/12/18 04:08:22;;;;;;;1.63;1.53;;;;;;;0.58;nan;-19752.00;5031543;28;20259;-67
2023/12/18 04:10:48;;;;;;;1.10;1.10;;;;;;;0.77;nan;-19756.03;5031572;28;20174;-66
2023/12/18 04:13:13;;;;;;;1.73;1.63;;;;;;;0.76;nan;-19755.94;5030296;28;20186;-66
2023/12/18 04:15:39;;;;;;;1.00;1.00;;;;;;;0.77;nan;-19756.03;5031286;28;20257;-65
2023/12/18 04:18:06;;;;;;;1.07;1.07;;;;;;;0.81;nan;-19756.91;5031185;28;20189;-67
2023/12/18 04:20:32;;;;;;;1.30;1.23;;;;;;;0.96;nan;-19760.09;5031536;28;20641;-68
2023/12/18 04:22:57;;;;;;;1.20;1.20;;;;;;;0.82;nan;-18815.00;5029960;28;20210;-67
2023/12/18 04:25:24;;;;;;;2.30;1.60;;;;;;;1.11;nan;-18192.38;5031122;28;20353;-66
2023/12/18 04:27:50;;;;;;;1.13;1.13;;;;;;;1.08;nan;-18820.28;5031640;28;20538;-66
2023/12/18 04:30:15;;;;;;;1.30;1.20;;;;;;;0.67;nan;-19753.84;5030966;28;20222;-65
2023/12/18 04:32:40;;;;;;;1.70;1.60;;;;;;;0.68;nan;-20067.97;5030958;28;20179;-64
2023/12/18 04:35:06;;;;;;;1.50;1.40;;;;;;;0.73;nan;-20069.19;5031307;28;20675;-66
2023/12/18 04:37:32;;;;;;;1.17;1.17;;;;;;;0.95;nan;-20073.91;5031135;28;20175;-66
2023/12/18 04:39:58;;;;;;;1.17;1.10;;;;;;;0.50;nan;-20377.72;5030988;28;20159;-65
2023/12/18 04:42:23;;;;;;;1.03;1.03;;;;;;;0.47;nan;-20690.88;5033228;28;20649;-64
2023/12/18 04:44:49;;;;;;;1.07;1.07;;;;;;;0.71;nan;-20696.50;5032097;28;20211;-63
2023/12/18 04:47:14;;;;;;;1.10;1.10;;;;;;;0.49;nan;-20691.34;5031220;28;20724;-65
2023/12/18 04:49:40;;;;;;;1.83;1.67;;;;;;;0.51;nan;-21005.53;5031273;28;20286;-64
2023/12/18 04:52:05;;;;;;;2.47;1.83;;;;;;;0.48;nan;-21318.38;5031028;28;20599;-67
2023/12/18 04:54:31;;;;;;;1.37;1.30;;;;;;;0.22;nan;-21312.16;5030722;28;20180;-67
2023/12/18 04:56:56;;;;;;;1.33;1.23;;;;;;;0.10;nan;-21622.66;5029557;28;20179;-67
2023/12/18 04:59:21;;;;;;;1.20;1.20;;;;;;;0.39;nan;-21630.03;5031005;28;20178;-68
2023/12/18 05:01:47;;;;;;;1.17;1.17;;;;;;;0.14;nan;-21623.66;5031439;28;20309;-68
2023/12/18 05:04:12;;;;;;;2.10;1.40;;;;;;;0.42;nan;-21317.03;5031046;28;20568;-65
2023/12/18 05:06:39;;;;;;;1.43;1.33;;;;;;;0.22;nan;-21312.16;5031713;28;20189;-66
2023/12/18 05:09:05;;;;;;;1.47;1.37;;;;;;;0.21;nan;-21311.91;5034529;28;20183;-66
2023/12/18 05:11:30;;;;;;;3.00;1.70;;;;;;;0.22;nan;-21312.28;5034983;28;20179;-65
2023/12/18 05:13:56;;;;;;;1.00;1.00;;;;;;;0.55;nan;-21006.50;5034464;28;20276;-63
2023/12/18 05:16:21;;;;;;;1.23;1.20;;;;;;;0.33;nan;-21001.22;5034321;28;20220;-66
2023/12/18 05:18:47;;;;;;;1.60;1.50;;;;;;;0.60;nan;-20693.94;5033696;28;20556;-67
2023/12/18 05:21:12;;;;;;;1.30;1.27;;;;;;;0.24;nan;-20999.06;5033891;28;20240;-66
2023/12/18 05:23:39;;;;;;;1.47;1.37;;;;;;;0.61;nan;-20694.03;5033555;28;20256;-63
2023/12/18 05:26:04;;;;;;;1.10;1.10;;;;;;;0.32;nan;-21001.00;5034239;28;20734;-66
2023/12/18 05:28:30;;;;;;;1.47;1.37;;;;;;;0.17;nan;-21311.03;5034071;28;20215;-67
2023/12/18 05:30:55;;;;;;;1.10;1.10;;;;;;;0.19;nan;-21624.91;5034085;28;20222;-66
2023/12/18 05:33:21;;;;;;;1.20;1.20;;;;;;;0.34;nan;-21628.66;5034215;28;20181;-67
2023/12/18 05:35:46;;;;;;;1.20;1.20;;;;;;;0.37;nan;-21629.53;5033956;28;20544;-64
2023/12/18 05:38:12;;;;;;;1.20;1.20;;;;;;;0.37;nan;-21629.41;5033560;28;20197;-64
2023/12/18 05:40:38;;;;;;;1.43;1.37;;;;;;;0.22;nan;-21625.78;5034319;28;20205;-64
2023/12/18 05:43:04;;;;;;;1.30;1.30;;;;;;;0.44;nan;-21631.28;5034233;28;20620;-64
2023/12/18 05:45:31;;;;;;;1.40;1.33;;;;;;;0.34;nan;-21628.78;5038160;28;20245;-66
2023/12/18 05:47:57;;;;;;;1.37;1.30;;;;;;;0.39;nan;-21630.03;5032665;28;20190;-67
2023/12/18 05:50:22;;;;;;;1.40;1.30;;;;;;;0.33;nan;-21628.53;5027424;28;20646;-64
2023/12/18 05:52:48;;;;;;;1.10;1.10;;;;;;;0.10;nan;-21936.22;5022465;28;20193;-65
2023/12/18 05:55:13;;;;;;;1.83;1.73;;;;;;;0.48;nan;-21945.66;5024776;28;20186;-66
2023/12/18 05:57:39;;;;;;;1.57;1.50;;;;;;;0.57;nan;-21634.41;5023364;28;20188;-65
2023/12/18 06:00:05;;;;;;;1.10;1.10;;;;;;;0.44;nan;-21631.28;5023181;28;20180;-65
2023/12/18 06:02:31;;;;;;;1.10;1.10;;;;;;;0.60;nan;-21635.03;5020498;28;20231;-64
2023/12/18 06:04:57;;;;;;;1.57;1.47;;;;;;;0.62;nan;-21949.34;5021199;28;20202;-65
2023/12/18 06:07:22;;;;;;;1.13;1.13;;;;;;;0.38;nan;-21629.78;5012034;28;20659;-64
2023/12/18 06:09:47;;;;;;;1.53;1.43;;;;;;;0.50;nan;-21632.53;5013619;28;20565;-67
2023/12/18 06:12:13;;;;;;;1.37;1.37;;;;;;;0.66;nan;-21636.66;5013639;28;20274;-65
2023/12/18 06:14:38;;;;;;;1.20;1.20;;;;;;;0.58;nan;-21320.97;5013420;28;20183;-65
2023/12/18 06:17:04;;;;;;;2.00;1.73;;;;;;;0.96;nan;-21330.00;5013390;28;20183;-67
2023/12/18 06:19:29;;;;;;;1.10;1.10;;;;;;;0.74;nan;-21324.88;5012308;28;20180;-64
2023/12/18 06:21:55;;;;;;;1.30;1.30;;;;;;;0.85;nan;-21327.56;5022055;28;20186;-66
2023/12/18 06:24:20;;;;;;;1.50;1.40;;;;;;;1.15;nan;-21334.66;5033301;28;20182;-62
2023/12/18 06:26:45;;;;;;;1.13;1.13;;;;;;;1.20;nan;-21021.84;5032856;28;20275;-63
2023/12/18 06:29:11;;;;;;;1.23;1.23;;;;;;;1.06;nan;-20390.56;5032041;28;20175;-64
2023/12/18 06:31:36;;;;;;;1.10;1.10;;;;;;;1.11;nan;-19763.47;5032861;28;20281;-68
2023/12/18 06:34:03;;;;;;;1.60;1.50;;;;;;;1.36;nan;-19140.22;5033011;28;20167;-63
2023/12/18 06:36:29;;;;;;;1.20;1.20;;;;;;;1.72;nan;-17889.38;5032432;28;20175;-67
2023/12/18 06:38:54;;;;;;;1.20;1.20;;;;;;;1.78;nan;-17261.03;5032679;28;20183;-64
2023/12/18 06:41:19;;;;;;;1.10;1.10;;;;;;;1.80;nan;-17576.00;5032500;28;20551;-68
2023/12/18 06:43:45;;;;;;;2.13;2.03;;;;;;;1.74;nan;-17889.75;5032467;28;20199;-63
2023/12/18 06:46:10;;;;;;;1.70;1.33;;;;;;;2.19;nan;-16638.31;5032455;28;20245;-64
2023/12/18 06:48:36;;;;;;;1.37;1.37;;;;;;;2.25;nan;-16009.00;5034533;28;20186;-66
2023/12/18 06:51:01;;;;;;;1.10;1.10;;;;;;;2.06;nan;-16321.19;5034804;28;20214;-68
2023/12/18 06:53:27;;;;;;;1.73;1.63;;;;;;;2.50;nan;-14751.78;5031617;28;20187;-64
2023/12/18 06:55:52;;;;;;;1.67;1.57;;;;;;;2.42;nan;-15381.31;5032476;28;20274;-64
2023/12/18 06:58:18;;;;;;;2.00;1.90;;;;;;;2.53;nan;-15382.91;5032489;28;20196;-67
2023/12/18 07:00:44;;;;;;;1.47;1.37;;;;;;;2.74;nan;-15070.47;5032558;28;20172;-66
2023/12/18 07:03:09;;;;;;;1.87;1.57;;;;;;;2.83;nan;-14440.63;5031305;28;20265;-67
2023/12/18 07:05:35;;;;;;;1.60;1.50;;;;;;;2.72;nan;-15070.19;5030478;28;20269;-67
2023/12/18 07:08:01;;;;;;;1.30;1.30;;;;;;;2.62;nan;-15384.22;5032147;28;20576;-65
2023/12/18 07:10:26;;;;;;;1.87;1.43;;;;;;;2.71;nan;-14439.13;5032053;28;20314;-67
2023/12/18 07:12:52;;;;;;;1.10;1.10;;;;;;;2.81;nan;-15071.38;5031518;28;20265;-66
2023/12/18 07:15:18;;;;;;;2.33;1.70;;;;;;;2.84;nan;-14756.34;5030589;28;20187;-66
2023/12/18 07:17:43;;;;;;;1.43;1.30;;;;;;;2.72;nan;-14754.72;5032123;28;20259;-66
2023/12/18 07:20:09;;;;;;;1.57;1.30;;;;;;;2.94;nan;-15073.19;5031696;28;20179;-67
2023/12/18 07:22:35;;;;;;;1.20;1.20;;;;;;;3.09;nan;-14128.34;5031415;28;20598;-66
2023/12/18 07:25:02;;;;;;;1.80;1.70;;;;;;;2.98;nan;-14758.22;5031965;28;20168;-67
2023/12/18 07:27:28;;;;;;;1.70;1.60;;;;;;;3.16;nan;-14760.50;5031945;28;20175;-68
2023/12/18 07:29:53;;;;;;;1.10;1.10;;;;;;;3.38;nan;-14447.66;5031757;28;20205;-65
2023/12/18 07:32:19;;;;;;;2.30;2.10;;;;;;;3.50;nan;-13501.38;5030384;28;20194;-68
2023/12/18 07:34:45;;;;;;;1.70;1.60;;;;;;;3.23;nan;-14129.97;5030427;28;20199;-65
2023/12/18 07:37:11;;;;;;;1.97;1.63;;;;;;;3.48;nan;-13501.22;5031841;28;20168;-65
2023/12/18 07:39:37;;;;;;;1.20;1.20;;;;;;;3.31;nan;-13499.28;5020643;28;20266;-66
2023/12/18 07:42:02;;;;;;;1.40;1.30;;;;;;;3.59;nan;-13186.38;5028269;28;20207;-69
2023/12/18 07:44:28;;;;;;;2.07;1.70;;;;;;;3.47;nan;-14132.94;5011592;28;20180;-64
2023/12/18 07:46:53;;;;;;;1.50;1.40;;;;;;;3.59;nan;-11605.69;5019840;28;20646;-67
2023/12/18 07:49:18;;;;;;;1.53;1.43;;;;;;;3.87;nan;-10342.25;5031009;28;20175;-64
2023/12/18 07:51:44;;;;;;;1.67;1.57;;;;;;;3.78;nan;-10341.69;5031105;28;20650;-64
2023/12/18 07:54:09;;;;;;;1.17;1.17;;;;;;;3.91;nan;-10342.50;5031389;28;20174;-65
2023/12/18 07:56:34;;;;;;;1.90;1.80;;;;;;;3.93;nan;-10342.63;5033009;28;20569;-64
2023/12/18 07:59:00;;;;;;;4.90;2.07;;;;;;;4.24;nan;-10344.47;5030985;28;20225;-63
2023/12/18 08:01:25;;;;;;;1.33;1.33;;;;;;;4.36;nan;-10345.19;5029726;28;20211;-67
2023/12/18 08:03:51;;;;;;;3.60;1.80;;;;;;;4.54;nan;-10663.06;5031046;28;20214;-67
2023/12/18 08:06:17;;;;;;;1.47;1.37;;;;;;;4.51;nan;-9395.50;5030604;28;20202;-64
2023/12/18 08:08:42;;;;;;;3.07;1.87;;;;;;;4.38;nan;-8444.28;5031379;28;20178;-67
2023/12/18 08:11:09;;;;;;;1.83;1.70;;;;;;;4.79;nan;-7493.88;5031241;28;20179;-68
2023/12/18 08:13:38;;;;;;;2.83;2.00;;;;;;;4.88;nan;-7176.69;5030699;28;20217;-66
2023/12/18 08:16:05;;;;;;;1.80;1.70;;;;;;;4.95;nan;-6859.41;5030908;28;20178;-69
2023/12/18 08:18:31;;;;;;;2.20;1.77;;;;;;;5.08;nan;-5271.81;5030602;28;20262;-65
2023/12/18 08:20:56;;;;;;;1.20;1.20;;;;;;;5.26;nan;-4635.91;5031035;28;20174;-67
2023/12/18 08:23:21;;;;;;;1.90;1.80;;;;;;;5.37;nan;-3681.97;5030849;28;20199;-67
2023/12/18 08:25:47;;;;;;;1.57;1.47;;;;;;;5.45;nan;-1773.34;5030415;28;20679;-67
2023/12/18 08:28:12;;;;;;;1.63;1.53;;;;;;;5.33;nan;452.97;5030308;28;20217;-67
2023/12/18 08:30:38;;;;;;;1.63;1.53;;;;;;;5.33;nan;453.03;5030415;28;20614;-67
2023/12/18 08:33:03;;;;;;;1.77;1.67;;;;;;;5.49;nan;1410.13;5030529;28;20592;-67
2023/12/18 08:35:29;;;;;;;2.90;2.43;;;;;;;5.51;nan;455.13;5030007;28;20236;-65
2023/12/18 08:37:54;;;;;;;2.00;1.90;;;;;;;5.72;nan;-497.78;5030731;28;20551;-68
2023/12/18 08:40:20;;;;;;;1.57;1.47;;;;;;;5.42;nan;772.41;5030404;28;20171;-67
2023/12/18 08:42:45;;;;;;;1.83;1.73;;;;;;;5.63;nan;1411.97;5030107;28;20294;-64
2023/12/18 08:45:11;;;;;;;1.57;1.40;;;;;;;5.81;nan;1732.97;5031022;28;20164;-68
2023/12/18 08:47:36;;;;;;;1.20;1.20;;;;;;;5.96;nan;460.34;5021939;28;20582;-66
2023/12/18 08:50:02;;;;;;;2.50;1.60;;;;;;;5.93;nan;2372.16;5010255;28;20259;-66
2023/12/18 08:52:28;;;;;;;1.63;1.40;;;;;;;6.20;nan;3014.22;5010803;28;20176;-68
2023/12/18 08:54:53;;;;;;;1.50;1.40;;;;;;;6.29;nan;6526.88;5010801;28;20257;-65
2023/12/18 08:57:19;;;;;;;1.83;1.67;;;;;;;6.31;nan;2696.81;5010795;28;20255;-66
2023/12/18 08:59:44;;;;;;;1.60;1.50;;;;;;;6.29;nan;3653.66;5009437;28;20176;-67
2023/12/18 09:02:10;;;;;;;1.80;1.63;;;;;;;6.37;nan;3016.91;5019101;28;20689;-66
2023/12/18 09:04:36;;;;;;;1.30;1.30;;;;;;;6.44;nan;6849.53;5027819;28;20187;-66
2023/12/18 09:07:02;;;;;;;1.37;1.33;;;;;;;6.52;nan;10048.31;5030159;28;20639;-64
2023/12/18 09:09:27;;;;;;;1.63;1.53;;;;;;;6.28;nan;8443.47;5030720;28;20179;-67
2023/12/18 09:11:52;;;;;;;1.63;1.53;;;;;;;6.35;nan;8764.72;5030645;28;20180;-64
2023/12/18 09:14:18;;;;;;;1.53;1.43;;;;;;;6.42;nan;9406.03;5030210;28;20207;-68
2023/12/18 09:16:44;;;;;;;1.60;1.50;;;;;;;6.45;nan;7808.50;5030597;28;20184;-70
2023/12/18 09:19:10;;;;;;;1.20;1.20;;;;;;;6.51;nan;6531.63;5030483;28;20267;-65
2023/12/18 09:21:35;;;;;;;1.57;1.40;;;;;;;6.58;nan;5574.69;5030573;28;20567;-67
2023/12/18 09:24:01;;;;;;;1.77;1.67;;;;;;;6.69;nan;5896.47;5024633;28;20204;-68
2023/12/18 09:26:26;;;;;;;1.63;1.53;;;;;;;6.71;nan;3341.50;5027690;28;20192;-66
2023/12/18 09:28:51;;;;;;;1.50;1.40;;;;;;;6.93;nan;3345.19;5030794;28;20599;-67
2023/12/18 09:31:17;;;;;;;1.60;1.50;;;;;;;7.08;nan;6224.38;5031137;28;20254;-65
2023/12/18 09:33:43;;;;;;;1.30;1.20;;;;;;;7.33;nan;8149.44;5030298;28;20262;-67
2023/12/18 09:36:08;;;;;;;1.63;1.40;;;;;;;7.42;nan;10713.81;5030906;28;20264;-68
2023/12/18 09:38:34;;;;;;;1.40;1.33;;;;;;;7.34;nan;14878.28;5030941;28;20618;-66
2023/12/18 09:40:59;;;;;;;1.60;1.50;;;;;;;7.40;nan;11674.47;5030585;28;20685;-66
2023/12/18 09:43:26;;;;;;;2.30;2.00;;;;;;;7.34;nan;10070.88;5030359;28;20760;-66
2023/12/18 09:45:54;;;;;;;2.43;1.43;;;;;;;7.31;nan;8469.16;5030693;28;20650;-67
2023/12/18 09:48:20;;;;;;;1.73;1.63;;;;;;;7.49;nan;7833.25;5030202;28;20722;-65
2023/12/18 09:50:46;;;;;;;2.33;2.00;;;;;;;7.50;nan;6873.22;5030331;28;20328;-66
2023/12/18 09:53:20;;;;;;;1.55;1.45;;;;;;;7.75;nan;6878.88;5030276;28;20266;-67
2023/12/18 09:55:54;;;;;;;3.53;1.85;;;;;;;7.92;nan;5601.81;5033938;28;20201;-67
2023/12/18 09:58:21;;;;;;;2.33;2.10;;;;;;;8.06;nan;4964.22;5033834;28;20200;-66
2023/12/18 10:00:47;;;;;;;2.70;1.90;;;;;;;8.05;nan;3043.75;5033397;28;20766;-64
2023/12/18 10:03:15;;;;;;;2.15;1.95;;;;;;;8.34;nan;5930.69;5034299;28;20199;-66
2023/12/18 10:05:42;;;;;;;1.48;1.38;;;;;;;7.98;nan;7204.41;5035754;28;20186;-66
2023/12/18 10:08:09;;;;;;;1.67;1.58;;;;;;;8.24;nan;9454.19;5034033;28;20316;-69
2023/12/18 10:10:35;;;;;;;1.27;1.25;;;;;;;8.29;nan;9776.38;5033632;28;20194;-67
2023/12/18 10:13:03;;;;;;;1.80;1.50;;;;;;;8.34;nan;6571.53;5033566;28;20638;-66
2023/12/18 10:15:29;;;;;;;1.52;1.42;;;;;;;8.41;nan;7855.31;5033352;28;20193;-65
2023/12/18 10:17:54;;;;;;;1.58;1.48;;;;;;;8.44;nan;9138.78;5033879;28;20183;-65
2023/12/18 10:20:20;;;;;;;1.95;1.48;;;;;;;8.64;nan;8502.41;5033777;28;20254;-68
2023/12/18 10:22:45;;;;;;;2.28;2.08;;;;;;;8.84;nan;11718.09;5033533;28;20218;-64
2023/12/18 10:25:12;;;;;;;1.48;1.38;;;;;;;8.82;nan;8827.88;5033511;28;20178;-67
2023/12/18 10:27:38;;;;;;;1.65;1.55;;;;;;;9.04;nan;5624.53;5033738;28;20179;-67
2023/12/18 10:30:08;;;;;;;1.52;1.42;;;;;;;9.00;nan;9474.38;5033214;28;20182;-70
2023/12/18 10:32:39;;;;;;;1.25;1.23;;;;;;;9.12;nan;8514.31;5033491;28;20167;-68
2023/12/18 10:35:05;;;;;;;1.50;1.40;;;;;;;9.22;nan;17842.16;5033621;28;20264;-64
2023/12/18 10:37:32;;;;;;;1.15;1.13;;;;;;;9.13;nan;20415.19;5033374;28;20230;-69
2023/12/18 10:40:11;;;;;;;1.40;1.30;;;;;;;9.26;nan;17521.75;5033083;28;20175;-67
2023/12/18 10:42:37;;;;;;;1.30;1.20;;;;;;;9.40;nan;13664.59;5033505;28;20202;-67
2023/12/18 10:45:06;;;;;;;1.60;1.50;;;;;;;9.35;nan;15915.34;5033388;28;20187;-66
2023/12/18 10:47:32;;;;;;;1.55;1.45;;;;;;;9.22;nan;20741.50;5032793;28;20175;-66
2023/12/18 10:50:01;;;;;;;1.48;1.38;;;;;;;9.44;nan;19461.72;5033287;28;20187;-68
2023/12/18 10:52:29;;;;;;;1.15;1.15;;;;;;;9.41;nan;20105.25;5032750;28;20174;-66
2023/12/18 10:55:00;;;;;;;1.40;1.30;;;;;;;9.63;nan;17536.47;5032545;28;20172;-68
2023/12/18 10:57:26;;;;;;;1.35;1.30;;;;;;;9.69;nan;16572.34;5032916;28;20182;-65
2023/12/18 10:59:52;;;;;;;1.88;1.40;;;;;;;9.79;nan;20444.50;5032856;28;20206;-67
2023/12/18 11:02:18;;;;;;;1.42;1.33;;;;;;;9.65;nan;19793.50;5032458;28;20191;-68
2023/12/18 11:04:46;;;;;;;1.45;1.35;;;;;;;9.70;nan;19150.88;5032303;28;20177;-66
2023/12/18 11:07:16;;;;;;;1.75;1.63;;;;;;;9.98;nan;20130.22;5032678;28;20175;-64
2023/12/18 11:09:45;;;;;;;1.55;1.45;;;;;;;9.94;nan;17870.97;5032461;28;20175;-66
2023/12/18 11:12:15;;;;;;;1.42;1.33;;;;;;;10.00;nan;16906.50;5032761;28;20178;-66
2023/12/18 11:15:09;;;;;;;1.52;1.42;;;;;;;10.25;nan;17883.66;5032353;28;20176;-64
2023/12/18 11:18:16;;;;;;;1.20;1.20;;;;;;;10.39;nan;19502.91;5032624;28;20255;-66
2023/12/18 11:20:42;;;;;;;1.60;1.48;;;;;;;10.42;nan;26289.69;5032421;28;20206;-69
2023/12/18 11:23:10;;;;;;;1.50;1.40;;;;;;;10.44;nan;25967.59;5031673;28;20209;-66
2023/12/18 11:25:41;;;;;;;1.35;1.25;;;;;;;10.30;nan;29194.91;5031383;28;20233;-67
2023/12/18 11:28:07;;;;;;;1.10;1.10;;;;;;;10.44;nan;24997.44;5031176;28;20563;-69
2023/12/18 11:30:34;;;;;;;1.38;1.30;;;;;;;10.60;nan;26299.84;5031166;28;20223;-67
2023/12/18 11:33:08;;;;;;;1.27;1.20;;;;;;;10.61;nan;27594.88;5031834;28;20705;-67
2023/12/18 11:35:36;;;;;;;1.10;1.10;;;;;;;10.94;nan;31826.31;5032037;28;20186;-65
2023/12/18 11:38:14;;;;;;;0.95;0.95;;;;;;;10.94;nan;31177.50;5031822;28;20255;-65
2023/12/18 11:40:44;;;;;;;1.35;1.27;;;;;;;10.60;nan;32128.97;5031619;28;20179;-64
2023/12/18 11:43:32;;;;;;;1.45;1.35;;;;;;;10.76;nan;30194.31;5031538;28;20187;-68
2023/12/18 11:45:59;;;;;;;1.40;1.30;;;;;;;10.71;nan;30190.94;5031912;28;20176;-65
2023/12/18 11:48:24;;;;;;;1.42;1.30;;;;;;;10.43;nan;31470.00;5031291;28;20238;-66